sensor_id;sensor_type;location;lat;lon;timestamp;temperature;humidity
46139;DHT22;32398;49.112;8.598;2023-02-26T00:02:05;4.50;76.10
46139;DHT22;32398;49.112;8.598;2023-02-26T00:04:31;4.50;76.10
46139;DHT22;32398;49.112;8.598;2023-02-26T00:06:58;4.50;76.90
46139;DHT22;32398;49.112;8.598;2023-02-26T00:09:26;4.40;76.20
46139;DHT22;32398;49.112;8.598;2023-02-26T00:11:52;4.40;76.20
46139;DHT22;32398;49.112;8.598;2023-02-26T00:14:19;4.40;76.40
46139;DHT22;32398;49.112;8.598;2023-02-26T00:16:46;4.40;76.40
46139;DHT22;32398;49.112;8.598;2023-02-26T00:19:14;4.40;76.50
46139;DHT22;32398;49.112;8.598;2023-02-26T00:21:41;4.40;76.50
46139;DHT22;32398;49.112;8.598;2023-02-26T00:24:08;4.40;76.50
46139;DHT22;32398;49.112;8.598;2023-02-26T00:26:36;4.30;76.50
46139;DHT22;32398;49.112;8.598;2023-02-26T00:29:03;4.30;76.60
46139;DHT22;32398;49.112;8.598;2023-02-26T00:31:29;4.30;76.70
46139;DHT22;32398;49.112;8.598;2023-02-26T00:33:56;4.30;76.70
46139;DHT22;32398;49.112;8.598;2023-02-26T00:36:24;4.30;76.80
46139;DHT22;32398;49.112;8.598;2023-02-26T00:38:58;4.20;76.70
46139;DHT22;32398;49.112;8.598;2023-02-26T00:41:25;4.20;76.80
46139;DHT22;32398;49.112;8.598;2023-02-26T00:43:53;4.20;76.80
46139;DHT22;32398;49.112;8.598;2023-02-26T00:46:20;4.20;76.80
46139;DHT22;32398;49.112;8.598;2023-02-26T00:48:51;4.20;76.80
46139;DHT22;32398;49.112;8.598;2023-02-26T00:51:22;4.10;76.80
46139;DHT22;32398;49.112;8.598;2023-02-26T00:53:54;4.10;76.80
46139;DHT22;32398;49.112;8.598;2023-02-26T00:56:23;4.10;76.90
46139;DHT22;32398;49.112;8.598;2023-02-26T00:58:50;4.10;76.90
46139;DHT22;32398;49.112;8.598;2023-02-26T01:01:18;4.10;77.00
46139;DHT22;32398;49.112;8.598;2023-02-26T01:03:45;4.00;77.00
46139;DHT22;32398;49.112;8.598;2023-02-26T01:06:12;4.00;77.00
46139;DHT22;32398;49.112;8.598;2023-02-26T01:08:42;4.00;77.00
46139;DHT22;32398;49.112;8.598;2023-02-26T01:11:11;4.00;77.00
46139;DHT22;32398;49.112;8.598;2023-02-26T01:13:37;3.90;77.00
46139;DHT22;32398;49.112;8.598;2023-02-26T01:16:06;3.90;77.00
46139;DHT22;32398;49.112;8.598;2023-02-26T01:18:37;3.90;77.00
46139;DHT22;32398;49.112;8.598;2023-02-26T01:21:07;3.90;77.10
46139;DHT22;32398;49.112;8.598;2023-02-26T01:23:37;3.90;77.10
46139;DHT22;32398;49.112;8.598;2023-02-26T01:26:05;3.90;77.10
46139;DHT22;32398;49.112;8.598;2023-02-26T01:28:34;3.80;77.00
46139;DHT22;32398;49.112;8.598;2023-02-26T01:31:01;3.80;77.10
46139;DHT22;32398;49.112;8.598;2023-02-26T01:33:31;3.80;77.10
46139;DHT22;32398;49.112;8.598;2023-02-26T01:36:02;3.80;77.10
46139;DHT22;32398;49.112;8.598;2023-02-26T01:38:34;3.80;77.10
46139;DHT22;32398;49.112;8.598;2023-02-26T01:41:09;3.70;77.10
46139;DHT22;32398;49.112;8.598;2023-02-26T01:43:38;3.70;77.10
46139;DHT22;32398;49.112;8.598;2023-02-26T01:46:09;3.70;77.10
46139;DHT22;32398;49.112;8.598;2023-02-26T01:48:42;3.70;77.20
46139;DHT22;32398;49.112;8.598;2023-02-26T01:51:14;3.70;77.20
46139;DHT22;32398;49.112;8.598;2023-02-26T01:53:41;3.70;77.30
46139;DHT22;32398;49.112;8.598;2023-02-26T01:56:09;3.60;77.30
46139;DHT22;32398;49.112;8.598;2023-02-26T01:58:38;3.60;77.20
46139;DHT22;32398;49.112;8.598;2023-02-26T02:01:05;3.60;77.20
46139;DHT22;32398;49.112;8.598;2023-02-26T02:03:33;3.60;77.30
46139;DHT22;32398;49.112;8.598;2023-02-26T02:06:01;3.60;77.30
46139;DHT22;32398;49.112;8.598;2023-02-26T02:08:31;3.50;77.30
46139;DHT22;32398;49.112;8.598;2023-02-26T02:11:00;3.50;77.30
46139;DHT22;32398;49.112;8.598;2023-02-26T02:13:29;3.50;77.40
46139;DHT22;32398;49.112;8.598;2023-02-26T02:16:00;3.50;77.40
46139;DHT22;32398;49.112;8.598;2023-02-26T02:18:34;3.50;77.50
46139;DHT22;32398;49.112;8.598;2023-02-26T02:21:08;3.50;77.60
46139;DHT22;32398;49.112;8.598;2023-02-26T02:23:43;3.40;77.60
46139;DHT22;32398;49.112;8.598;2023-02-26T02:29:00;3.40;77.60
46139;DHT22;32398;49.112;8.598;2023-02-26T02:31:30;3.40;77.60
46139;DHT22;32398;49.112;8.598;2023-02-26T02:33:59;3.40;77.70
46139;DHT22;32398;49.112;8.598;2023-02-26T02:36:28;3.30;77.70
46139;DHT22;32398;49.112;8.598;2023-02-26T02:38:57;3.30;77.70
46139;DHT22;32398;49.112;8.598;2023-02-26T02:41:28;3.30;77.70
46139;DHT22;32398;49.112;8.598;2023-02-26T02:43:55;3.30;77.70
46139;DHT22;32398;49.112;8.598;2023-02-26T02:46:23;3.30;77.80
46139;DHT22;32398;49.112;8.598;2023-02-26T02:48:53;3.30;77.80
46139;DHT22;32398;49.112;8.598;2023-02-26T02:51:24;3.20;77.80
46139;DHT22;32398;49.112;8.598;2023-02-26T02:53:53;3.20;77.80
46139;DHT22;32398;49.112;8.598;2023-02-26T02:56:22;3.20;77.90
46139;DHT22;32398;49.112;8.598;2023-02-26T02:58:50;3.20;77.90
46139;DHT22;32398;49.112;8.598;2023-02-26T03:01:18;3.10;77.90
46139;DHT22;32398;49.112;8.598;2023-02-26T03:03:47;3.10;77.90
46139;DHT22;32398;49.112;8.598;2023-02-26T03:06:16;3.10;77.90
46139;DHT22;32398;49.112;8.598;2023-02-26T03:08:43;3.10;77.90
46139;DHT22;32398;49.112;8.598;2023-02-26T03:11:11;3.10;78.00
46139;DHT22;32398;49.112;8.598;2023-02-26T03:13:38;3.00;77.90
46139;DHT22;32398;49.112;8.598;2023-02-26T03:16:09;3.00;78.00
46139;DHT22;32398;49.112;8.598;2023-02-26T03:18:40;3.00;78.00
46139;DHT22;32398;49.112;8.598;2023-02-26T03:21:12;3.00;78.00
46139;DHT22;32398;49.112;8.598;2023-02-26T03:23:44;2.90;78.00
46139;DHT22;32398;49.112;8.598;2023-02-26T03:26:13;2.90;78.00
46139;DHT22;32398;49.112;8.598;2023-02-26T03:28:42;2.90;78.00
46139;DHT22;32398;49.112;8.598;2023-02-26T03:31:11;2.90;78.10
46139;DHT22;32398;49.112;8.598;2023-02-26T03:33:45;2.90;78.20
46139;DHT22;32398;49.112;8.598;2023-02-26T03:36:13;2.80;78.10
46139;DHT22;32398;49.112;8.598;2023-02-26T03:38:44;2.80;78.20
46139;DHT22;32398;49.112;8.598;2023-02-26T03:41:12;2.80;78.20
46139;DHT22;32398;49.112;8.598;2023-02-26T03:43:41;2.80;78.30
46139;DHT22;32398;49.112;8.598;2023-02-26T03:46:12;2.70;78.30
46139;DHT22;32398;49.112;8.598;2023-02-26T03:48:39;2.80;78.40
46139;DHT22;32398;49.112;8.598;2023-02-26T03:51:06;2.80;78.40
46139;DHT22;32398;49.112;8.598;2023-02-26T03:53:35;2.70;78.40
46139;DHT22;32398;49.112;8.598;2023-02-26T03:56:06;2.70;78.40
46139;DHT22;32398;49.112;8.598;2023-02-26T03:58:35;2.70;78.40
46139;DHT22;32398;49.112;8.598;2023-02-26T04:01:02;2.70;78.40
46139;DHT22;32398;49.112;8.598;2023-02-26T04:03:31;2.60;78.40
46139;DHT22;32398;49.112;8.598;2023-02-26T04:05:59;2.60;78.40
46139;DHT22;32398;49.112;8.598;2023-02-26T04:08:26;2.60;78.50
46139;DHT22;32398;49.112;8.598;2023-02-26T04:10:54;2.60;78.50
46139;DHT22;32398;49.112;8.598;2023-02-26T04:13:23;2.60;78.50
46139;DHT22;32398;49.112;8.598;2023-02-26T04:15:50;2.50;78.50
46139;DHT22;32398;49.112;8.598;2023-02-26T04:18:16;2.60;78.60
46139;DHT22;32398;49.112;8.598;2023-02-26T04:20:43;2.50;78.60
46139;DHT22;32398;49.112;8.598;2023-02-26T04:23:09;2.50;78.70
46139;DHT22;32398;49.112;8.598;2023-02-26T04:25:36;2.50;78.70
46139;DHT22;32398;49.112;8.598;2023-02-26T04:28:02;2.50;78.70
46139;DHT22;32398;49.112;8.598;2023-02-26T04:30:30;2.50;78.70
46139;DHT22;32398;49.112;8.598;2023-02-26T04:32:57;2.40;78.70
46139;DHT22;32398;49.112;8.598;2023-02-26T04:35:23;2.40;78.80
46139;DHT22;32398;49.112;8.598;2023-02-26T04:37:50;2.40;78.90
46139;DHT22;32398;49.112;8.598;2023-02-26T04:40:17;2.40;78.90
46139;DHT22;32398;49.112;8.598;2023-02-26T04:42:43;2.40;78.90
46139;DHT22;32398;49.112;8.598;2023-02-26T04:45:10;2.40;79.00
46139;DHT22;32398;49.112;8.598;2023-02-26T04:47:38;2.30;79.00
46139;DHT22;32398;49.112;8.598;2023-02-26T04:50:05;2.30;78.90
46139;DHT22;32398;49.112;8.598;2023-02-26T04:52:31;2.30;79.00
46139;DHT22;32398;49.112;8.598;2023-02-26T04:54:58;2.30;79.00
46139;DHT22;32398;49.112;8.598;2023-02-26T04:57:25;2.30;79.00
46139;DHT22;32398;49.112;8.598;2023-02-26T04:59:51;2.20;78.90
46139;DHT22;32398;49.112;8.598;2023-02-26T05:02:18;2.20;79.00
46139;DHT22;32398;49.112;8.598;2023-02-26T05:04:46;2.20;79.00
46139;DHT22;32398;49.112;8.598;2023-02-26T05:07:12;2.20;79.00
46139;DHT22;32398;49.112;8.598;2023-02-26T05:09:39;2.20;79.10
46139;DHT22;32398;49.112;8.598;2023-02-26T05:12:05;2.20;79.10
46139;DHT22;32398;49.112;8.598;2023-02-26T05:14:32;2.10;79.10
46139;DHT22;32398;49.112;8.598;2023-02-26T05:16:58;2.10;79.10
46139;DHT22;32398;49.112;8.598;2023-02-26T05:19:25;2.10;79.10
46139;DHT22;32398;49.112;8.598;2023-02-26T05:21:53;2.10;79.20
46139;DHT22;32398;49.112;8.598;2023-02-26T05:24:19;2.00;79.20
46139;DHT22;32398;49.112;8.598;2023-02-26T05:26:46;2.00;79.20
46139;DHT22;32398;49.112;8.598;2023-02-26T05:29:12;2.00;79.20
46139;DHT22;32398;49.112;8.598;2023-02-26T05:31:39;2.00;79.20
46139;DHT22;32398;49.112;8.598;2023-02-26T05:34:06;2.00;79.20
46139;DHT22;32398;49.112;8.598;2023-02-26T05:36:32;2.00;79.30
46139;DHT22;32398;49.112;8.598;2023-02-26T05:39:00;2.00;79.30
46139;DHT22;32398;49.112;8.598;2023-02-26T05:41:27;1.90;79.20
46139;DHT22;32398;49.112;8.598;2023-02-26T05:43:53;1.90;79.30
46139;DHT22;32398;49.112;8.598;2023-02-26T05:46:20;1.90;79.30
46139;DHT22;32398;49.112;8.598;2023-02-26T05:48:46;1.90;79.30
46139;DHT22;32398;49.112;8.598;2023-02-26T05:51:13;1.90;79.40
46139;DHT22;32398;49.112;8.598;2023-02-26T05:53:39;1.90;79.40
46139;DHT22;32398;49.112;8.598;2023-02-26T05:56:07;1.80;79.40
46139;DHT22;32398;49.112;8.598;2023-02-26T05:58:34;1.80;79.40
46139;DHT22;32398;49.112;8.598;2023-02-26T06:01:00;1.80;79.40
46139;DHT22;32398;49.112;8.598;2023-02-26T06:03:27;1.80;79.50
46139;DHT22;32398;49.112;8.598;2023-02-26T06:05:53;1.80;79.50
46139;DHT22;32398;49.112;8.598;2023-02-26T06:08:20;1.80;79.50
46139;DHT22;32398;49.112;8.598;2023-02-26T06:10:46;1.80;79.60
46139;DHT22;32398;49.112;8.598;2023-02-26T06:13:16;1.80;79.60
46139;DHT22;32398;49.112;8.598;2023-02-26T06:15:43;1.70;79.60
46139;DHT22;32398;49.112;8.598;2023-02-26T06:18:09;1.70;79.60
46139;DHT22;32398;49.112;8.598;2023-02-26T06:20:36;1.70;79.60
46139;DHT22;32398;49.112;8.598;2023-02-26T06:23:02;1.70;79.60
46139;DHT22;32398;49.112;8.598;2023-02-26T06:25:29;1.70;79.70
46139;DHT22;32398;49.112;8.598;2023-02-26T06:27:55;1.60;79.60
46139;DHT22;32398;49.112;8.598;2023-02-26T06:30:23;1.60;79.70
46139;DHT22;32398;49.112;8.598;2023-02-26T06:32:50;1.60;79.70
46139;DHT22;32398;49.112;8.598;2023-02-26T06:35:17;1.60;79.80
46139;DHT22;32398;49.112;8.598;2023-02-26T06:37:44;1.60;79.80
46139;DHT22;32398;49.112;8.598;2023-02-26T06:40:11;1.60;79.80
46139;DHT22;32398;49.112;8.598;2023-02-26T06:42:37;1.60;79.80
46139;DHT22;32398;49.112;8.598;2023-02-26T06:45:04;1.60;79.90
46139;DHT22;32398;49.112;8.598;2023-02-26T06:47:32;1.60;79.90
46139;DHT22;32398;49.112;8.598;2023-02-26T06:49:59;1.60;80.00
46139;DHT22;32398;49.112;8.598;2023-02-26T06:52:27;1.60;80.00
46139;DHT22;32398;49.112;8.598;2023-02-26T06:54:53;1.60;80.00
46139;DHT22;32398;49.112;8.598;2023-02-26T06:57:20;1.60;80.00
46139;DHT22;32398;49.112;8.598;2023-02-26T06:59:46;1.50;80.00
46139;DHT22;32398;49.112;8.598;2023-02-26T07:02:14;1.50;80.00
46139;DHT22;32398;49.112;8.598;2023-02-26T07:04:42;1.50;80.10
46139;DHT22;32398;49.112;8.598;2023-02-26T07:07:09;1.50;80.10
46139;DHT22;32398;49.112;8.598;2023-02-26T07:09:35;1.50;80.10
46139;DHT22;32398;49.112;8.598;2023-02-26T07:12:02;1.50;80.10
46139;DHT22;32398;49.112;8.598;2023-02-26T07:14:29;1.50;80.20
46139;DHT22;32398;49.112;8.598;2023-02-26T07:16:55;1.50;80.20
46139;DHT22;32398;49.112;8.598;2023-02-26T07:19:22;1.50;80.20
46139;DHT22;32398;49.112;8.598;2023-02-26T07:21:50;1.50;80.30
46139;DHT22;32398;49.112;8.598;2023-02-26T07:24:16;1.50;80.20
46139;DHT22;32398;49.112;8.598;2023-02-26T07:26:43;1.50;80.30
46139;DHT22;32398;49.112;8.598;2023-02-26T07:29:09;1.40;80.20
46139;DHT22;32398;49.112;8.598;2023-02-26T07:31:36;1.50;80.30
46139;DHT22;32398;49.112;8.598;2023-02-26T07:34:02;1.40;80.20
46139;DHT22;32398;49.112;8.598;2023-02-26T07:36:29;1.40;80.30
46139;DHT22;32398;49.112;8.598;2023-02-26T07:38:57;1.50;80.40
46139;DHT22;32398;49.112;8.598;2023-02-26T07:41:23;1.40;80.30
46139;DHT22;32398;49.112;8.598;2023-02-26T07:43:50;1.50;80.40
46139;DHT22;32398;49.112;8.598;2023-02-26T07:46:16;1.40;80.40
46139;DHT22;32398;49.112;8.598;2023-02-26T07:48:43;1.40;80.40
46139;DHT22;32398;49.112;8.598;2023-02-26T07:51:09;1.50;80.50
46139;DHT22;32398;49.112;8.598;2023-02-26T07:53:36;1.40;80.40
46139;DHT22;32398;49.112;8.598;2023-02-26T07:56:04;1.50;80.50
46139;DHT22;32398;49.112;8.598;2023-02-26T07:58:31;1.40;80.50
46139;DHT22;32398;49.112;8.598;2023-02-26T08:00:57;1.50;80.60
46139;DHT22;32398;49.112;8.598;2023-02-26T08:03:24;1.50;80.60
46139;DHT22;32398;49.112;8.598;2023-02-26T08:05:50;1.40;80.50
46139;DHT22;32398;49.112;8.598;2023-02-26T08:08:17;1.50;80.60
46139;DHT22;32398;49.112;8.598;2023-02-26T08:10:43;1.50;80.60
46139;DHT22;32398;49.112;8.598;2023-02-26T08:13:11;1.40;80.60
46139;DHT22;32398;49.112;8.598;2023-02-26T08:15:38;1.40;80.60
46139;DHT22;32398;49.112;8.598;2023-02-26T08:18:06;1.50;80.60
46139;DHT22;32398;49.112;8.598;2023-02-26T08:20:32;1.40;80.50
46139;DHT22;32398;49.112;8.598;2023-02-26T08:22:59;1.40;81.30
46139;DHT22;32398;49.112;8.598;2023-02-26T08:25:26;1.50;80.60
46139;DHT22;32398;49.112;8.598;2023-02-26T08:27:52;1.50;80.60
46139;DHT22;32398;49.112;8.598;2023-02-26T08:30:20;1.50;80.60
46139;DHT22;32398;49.112;8.598;2023-02-26T08:32:47;1.50;80.60
46139;DHT22;32398;49.112;8.598;2023-02-26T08:35:14;1.50;80.50
46139;DHT22;32398;49.112;8.598;2023-02-26T08:37:40;1.50;80.50
46139;DHT22;32398;49.112;8.598;2023-02-26T08:40:08;1.50;80.50
46139;DHT22;32398;49.112;8.598;2023-02-26T08:42:36;1.50;80.40
46139;DHT22;32398;49.112;8.598;2023-02-26T08:45:03;1.50;80.30
46139;DHT22;32398;49.112;8.598;2023-02-26T08:47:31;1.50;80.30
46139;DHT22;32398;49.112;8.598;2023-02-26T08:49:58;1.50;80.20
46139;DHT22;32398;49.112;8.598;2023-02-26T08:52:25;1.50;80.20
46139;DHT22;32398;49.112;8.598;2023-02-26T08:54:51;1.50;80.20
46139;DHT22;32398;49.112;8.598;2023-02-26T08:57:18;1.50;80.10
46139;DHT22;32398;49.112;8.598;2023-02-26T08:59:44;1.60;80.10
46139;DHT22;32398;49.112;8.598;2023-02-26T09:02:11;1.60;80.00
46139;DHT22;32398;49.112;8.598;2023-02-26T09:04:39;1.60;79.90
46139;DHT22;32398;49.112;8.598;2023-02-26T09:07:05;1.70;79.90
46139;DHT22;32398;49.112;8.598;2023-02-26T09:09:32;1.70;79.80
46139;DHT22;32398;49.112;8.598;2023-02-26T09:11:59;1.70;79.70
46139;DHT22;32398;49.112;8.598;2023-02-26T09:14:25;1.80;79.60
46139;DHT22;32398;49.112;8.598;2023-02-26T09:16:52;1.80;79.50
46139;DHT22;32398;49.112;8.598;2023-02-26T09:19:19;1.90;79.40
46139;DHT22;32398;49.112;8.598;2023-02-26T09:21:47;1.90;79.20
46139;DHT22;32398;49.112;8.598;2023-02-26T09:24:13;1.90;78.90
46139;DHT22;32398;49.112;8.598;2023-02-26T09:26:40;1.90;78.80
46139;DHT22;32398;49.112;8.598;2023-02-26T09:29:06;2.00;78.50
46139;DHT22;32398;49.112;8.598;2023-02-26T09:31:33;2.00;78.30
46139;DHT22;32398;49.112;8.598;2023-02-26T09:33:59;2.00;78.20
46139;DHT22;32398;49.112;8.598;2023-02-26T09:36:26;2.00;78.20
46139;DHT22;32398;49.112;8.598;2023-02-26T09:38:56;2.10;78.10
46139;DHT22;32398;49.112;8.598;2023-02-26T09:41:23;2.10;78.70
46139;DHT22;32398;49.112;8.598;2023-02-26T09:46:44;2.10;78.10
46139;DHT22;32398;49.112;8.598;2023-02-26T09:49:26;2.10;78.10
46139;DHT22;32398;49.112;8.598;2023-02-26T09:51:55;2.10;78.00
46139;DHT22;32398;49.112;8.598;2023-02-26T09:54:25;2.10;78.00
46139;DHT22;32398;49.112;8.598;2023-02-26T09:56:54;2.10;78.80
46139;DHT22;32398;49.112;8.598;2023-02-26T09:59:22;2.10;78.10
46139;DHT22;32398;49.112;8.598;2023-02-26T10:01:51;2.10;78.10
46139;DHT22;32398;49.112;8.598;2023-02-26T10:04:22;2.10;78.20
46139;DHT22;32398;49.112;8.598;2023-02-26T10:06:55;2.10;78.10
46139;DHT22;32398;49.112;8.598;2023-02-26T10:09:28;2.10;78.10
46139;DHT22;32398;49.112;8.598;2023-02-26T10:11:57;2.10;78.10
46139;DHT22;32398;49.112;8.598;2023-02-26T10:14:26;2.10;78.30
46139;DHT22;32398;49.112;8.598;2023-02-26T10:16:55;2.10;78.30
46139;DHT22;32398;49.112;8.598;2023-02-26T10:19:23;2.10;78.40
46139;DHT22;32398;49.112;8.598;2023-02-26T10:21:51;2.10;78.40
46139;DHT22;32398;49.112;8.598;2023-02-26T10:24:20;2.10;78.40
46139;DHT22;32398;49.112;8.598;2023-02-26T10:26:52;2.10;78.40
46139;DHT22;32398;49.112;8.598;2023-02-26T10:29:20;2.10;78.40
46139;DHT22;32398;49.112;8.598;2023-02-26T10:31:56;2.20;78.40
46139;DHT22;32398;49.112;8.598;2023-02-26T10:34:27;2.20;78.40
46139;DHT22;32398;49.112;8.598;2023-02-26T10:36:57;2.20;78.40
46139;DHT22;32398;49.112;8.598;2023-02-26T10:39:30;2.20;78.30
46139;DHT22;32398;49.112;8.598;2023-02-26T10:42:01;2.20;78.30
46139;DHT22;32398;49.112;8.598;2023-02-26T10:44:29;2.20;78.30
46139;DHT22;32398;49.112;8.598;2023-02-26T10:46:59;2.20;78.20
46139;DHT22;32398;49.112;8.598;2023-02-26T10:52:10;2.30;78.00
46139;DHT22;32398;49.112;8.598;2023-02-26T10:54:38;2.30;77.90
46139;DHT22;32398;49.112;8.598;2023-02-26T10:57:09;2.30;77.90
46139;DHT22;32398;49.112;8.598;2023-02-26T10:59:40;2.30;77.70
46139;DHT22;32398;49.112;8.598;2023-02-26T11:04:36;2.30;77.40
46139;DHT22;32398;49.112;8.598;2023-02-26T11:07:04;2.30;77.50
46139;DHT22;32398;49.112;8.598;2023-02-26T11:09:32;2.30;77.60
46139;DHT22;32398;49.112;8.598;2023-02-26T11:12:00;2.40;77.70
46139;DHT22;32398;49.112;8.598;2023-02-26T11:14:31;2.40;77.60
46139;DHT22;32398;49.112;8.598;2023-02-26T11:16:59;2.40;77.70
46139;DHT22;32398;49.112;8.598;2023-02-26T11:19:27;2.40;77.70
46139;DHT22;32398;49.112;8.598;2023-02-26T11:21:54;2.40;77.70
46139;DHT22;32398;49.112;8.598;2023-02-26T11:24:24;2.40;77.70
46139;DHT22;32398;49.112;8.598;2023-02-26T11:26:53;2.40;77.70
46139;DHT22;32398;49.112;8.598;2023-02-26T11:29:20;2.40;77.70
46139;DHT22;32398;49.112;8.598;2023-02-26T11:31:49;2.40;77.80
46139;DHT22;32398;49.112;8.598;2023-02-26T11:34:15;2.50;77.70
46139;DHT22;32398;49.112;8.598;2023-02-26T11:36:46;2.50;77.70
46139;DHT22;32398;49.112;8.598;2023-02-26T11:39:14;2.50;77.80
46139;DHT22;32398;49.112;8.598;2023-02-26T11:41:41;2.50;77.80
46139;DHT22;32398;49.112;8.598;2023-02-26T11:44:10;2.50;77.80
46139;DHT22;32398;49.112;8.598;2023-02-26T11:46:39;2.50;77.70
46139;DHT22;32398;49.112;8.598;2023-02-26T11:49:08;2.60;77.70
46139;DHT22;32398;49.112;8.598;2023-02-26T11:51:35;2.60;77.60
46139;DHT22;32398;49.112;8.598;2023-02-26T11:54:02;2.60;77.50
46139;DHT22;32398;49.112;8.598;2023-02-26T11:56:29;2.60;77.60
46139;DHT22;32398;49.112;8.598;2023-02-26T11:58:57;2.60;77.60
46139;DHT22;32398;49.112;8.598;2023-02-26T12:01:26;2.60;77.50
46139;DHT22;32398;49.112;8.598;2023-02-26T12:03:54;2.70;77.40
46139;DHT22;32398;49.112;8.598;2023-02-26T12:06:24;2.70;77.20
46139;DHT22;32398;49.112;8.598;2023-02-26T12:08:50;2.70;77.10
46139;DHT22;32398;49.112;8.598;2023-02-26T12:11:27;2.70;76.90
46139;DHT22;32398;49.112;8.598;2023-02-26T12:13:58;2.70;77.00
46139;DHT22;32398;49.112;8.598;2023-02-26T12:16:28;2.70;76.80
46139;DHT22;32398;49.112;8.598;2023-02-26T12:19:00;2.80;76.80
46139;DHT22;32398;49.112;8.598;2023-02-26T12:21:39;2.80;76.70
46139;DHT22;32398;49.112;8.598;2023-02-26T12:24:14;2.80;77.00
46139;DHT22;32398;49.112;8.598;2023-02-26T12:26:46;2.80;77.40
46139;DHT22;32398;49.112;8.598;2023-02-26T12:29:24;2.80;77.50
46139;DHT22;32398;49.112;8.598;2023-02-26T12:31:59;2.80;77.30
46139;DHT22;32398;49.112;8.598;2023-02-26T12:34:37;2.80;77.00
46139;DHT22;32398;49.112;8.598;2023-02-26T12:37:13;2.80;77.00
46139;DHT22;32398;49.112;8.598;2023-02-26T12:39:45;2.80;77.10
46139;DHT22;32398;49.112;8.598;2023-02-26T12:42:17;2.80;77.50
46139;DHT22;32398;49.112;8.598;2023-02-26T12:45:01;2.80;77.40
46139;DHT22;32398;49.112;8.598;2023-02-26T12:47:33;2.80;77.30
46139;DHT22;32398;49.112;8.598;2023-02-26T12:50:05;2.80;77.10
46139;DHT22;32398;49.112;8.598;2023-02-26T12:52:46;2.80;77.00
46139;DHT22;32398;49.112;8.598;2023-02-26T12:55:19;2.80;77.00
46139;DHT22;32398;49.112;8.598;2023-02-26T13:00:37;2.90;77.10
46139;DHT22;32398;49.112;8.598;2023-02-26T13:03:25;2.80;76.80
46139;DHT22;32398;49.112;8.598;2023-02-26T13:06:04;2.90;76.80
46139;DHT22;32398;49.112;8.598;2023-02-26T13:08:35;2.90;76.60
46139;DHT22;32398;49.112;8.598;2023-02-26T13:11:08;2.90;76.60
46139;DHT22;32398;49.112;8.598;2023-02-26T13:13:44;2.90;76.50
46139;DHT22;32398;49.112;8.598;2023-02-26T13:16:17;2.90;76.50
46139;DHT22;32398;49.112;8.598;2023-02-26T13:18:47;2.90;76.40
46139;DHT22;32398;49.112;8.598;2023-02-26T13:21:17;3.00;76.40
46139;DHT22;32398;49.112;8.598;2023-02-26T13:23:48;2.90;76.20
46139;DHT22;32398;49.112;8.598;2023-02-26T13:26:15;3.00;76.60
46139;DHT22;32398;49.112;8.598;2023-02-26T13:28:43;3.00;75.60
46139;DHT22;32398;49.112;8.598;2023-02-26T13:31:11;3.00;75.60
46139;DHT22;32398;49.112;8.598;2023-02-26T13:33:39;3.00;75.70
46139;DHT22;32398;49.112;8.598;2023-02-26T13:36:06;3.00;75.60
46139;DHT22;32398;49.112;8.598;2023-02-26T13:38:34;3.00;75.70
46139;DHT22;32398;49.112;8.598;2023-02-26T13:41:06;3.10;75.60
46139;DHT22;32398;49.112;8.598;2023-02-26T13:43:39;3.00;75.40
46139;DHT22;32398;49.112;8.598;2023-02-26T13:46:13;3.10;75.50
46139;DHT22;32398;49.112;8.598;2023-02-26T13:48:43;3.10;75.20
46139;DHT22;32398;49.112;8.598;2023-02-26T13:51:12;3.10;74.80
46139;DHT22;32398;49.112;8.598;2023-02-26T13:53:47;3.10;74.70
46139;DHT22;32398;49.112;8.598;2023-02-26T13:56:16;3.10;74.40
46139;DHT22;32398;49.112;8.598;2023-02-26T13:58:43;3.10;74.20
46139;DHT22;32398;49.112;8.598;2023-02-26T14:01:13;3.10;74.10
46139;DHT22;32398;49.112;8.598;2023-02-26T14:03:41;3.10;73.90
46139;DHT22;32398;49.112;8.598;2023-02-26T14:06:23;3.20;73.90
46139;DHT22;32398;49.112;8.598;2023-02-26T14:08:52;3.20;74.20
46139;DHT22;32398;49.112;8.598;2023-02-26T14:14:18;3.20;73.80
46139;DHT22;32398;49.112;8.598;2023-02-26T14:16:48;3.30;73.90
46139;DHT22;32398;49.112;8.598;2023-02-26T14:19:18;3.20;73.70
46139;DHT22;32398;49.112;8.598;2023-02-26T14:21:47;3.20;73.80
46139;DHT22;32398;49.112;8.598;2023-02-26T14:24:14;3.30;73.20
46139;DHT22;32398;49.112;8.598;2023-02-26T14:26:43;3.30;73.00
46139;DHT22;32398;49.112;8.598;2023-02-26T14:29:15;3.30;73.30
46139;DHT22;32398;49.112;8.598;2023-02-26T14:31:49;3.30;73.50
46139;DHT22;32398;49.112;8.598;2023-02-26T14:34:19;3.30;74.20
46139;DHT22;32398;49.112;8.598;2023-02-26T14:36:48;3.30;73.20
46139;DHT22;32398;49.112;8.598;2023-02-26T14:39:23;3.30;73.20
46139;DHT22;32398;49.112;8.598;2023-02-26T14:41:51;3.30;73.10
46139;DHT22;32398;49.112;8.598;2023-02-26T14:44:21;3.40;73.20
46139;DHT22;32398;49.112;8.598;2023-02-26T14:46:51;3.40;73.20
46139;DHT22;32398;49.112;8.598;2023-02-26T14:49:21;3.40;73.10
46139;DHT22;32398;49.112;8.598;2023-02-26T14:51:52;3.40;73.10
46139;DHT22;32398;49.112;8.598;2023-02-26T14:54:24;3.40;73.10
46139;DHT22;32398;49.112;8.598;2023-02-26T14:57:00;3.40;72.90
46139;DHT22;32398;49.112;8.598;2023-02-26T14:59:32;3.50;72.60
46139;DHT22;32398;49.112;8.598;2023-02-26T15:02:07;3.50;72.40
46139;DHT22;32398;49.112;8.598;2023-02-26T15:04:50;3.50;72.30
46139;DHT22;32398;49.112;8.598;2023-02-26T15:07:29;3.50;72.30
46139;DHT22;32398;49.112;8.598;2023-02-26T15:10:03;3.50;72.10
46139;DHT22;32398;49.112;8.598;2023-02-26T15:12:37;3.50;72.10
46139;DHT22;32398;49.112;8.598;2023-02-26T15:15:12;3.50;71.90
46139;DHT22;32398;49.112;8.598;2023-02-26T15:20:41;3.50;71.70
46139;DHT22;32398;49.112;8.598;2023-02-26T15:23:14;3.50;71.70
46139;DHT22;32398;49.112;8.598;2023-02-26T15:25:43;3.50;72.10
46139;DHT22;32398;49.112;8.598;2023-02-26T15:28:10;3.50;72.20
46139;DHT22;32398;49.112;8.598;2023-02-26T15:30:38;3.50;72.10
46139;DHT22;32398;49.112;8.598;2023-02-26T15:33:09;3.50;71.80
46139;DHT22;32398;49.112;8.598;2023-02-26T15:35:37;3.50;71.80
46139;DHT22;32398;49.112;8.598;2023-02-26T15:38:05;3.50;71.90
46139;DHT22;32398;49.112;8.598;2023-02-26T15:40:32;3.50;72.10
46139;DHT22;32398;49.112;8.598;2023-02-26T15:43:00;3.60;71.90
46139;DHT22;32398;49.112;8.598;2023-02-26T15:45:30;3.60;71.80
46139;DHT22;32398;49.112;8.598;2023-02-26T15:47:58;3.50;71.90
46139;DHT22;32398;49.112;8.598;2023-02-26T15:50:26;3.50;71.80
46139;DHT22;32398;49.112;8.598;2023-02-26T15:52:55;3.60;71.70
46139;DHT22;32398;49.112;8.598;2023-02-26T15:55:24;3.60;71.70
46139;DHT22;32398;49.112;8.598;2023-02-26T15:57:51;3.50;71.40
46139;DHT22;32398;49.112;8.598;2023-02-26T16:00:19;3.60;71.30
46139;DHT22;32398;49.112;8.598;2023-02-26T16:02:49;3.60;71.20
46139;DHT22;32398;49.112;8.598;2023-02-26T16:05:15;3.60;70.80
46139;DHT22;32398;49.112;8.598;2023-02-26T16:07:43;3.50;70.80
46139;DHT22;32398;49.112;8.598;2023-02-26T16:10:14;3.50;70.80
46139;DHT22;32398;49.112;8.598;2023-02-26T16:12:43;3.50;71.00
46139;DHT22;32398;49.112;8.598;2023-02-26T16:15:15;3.50;70.70